createdAt,value
2017-11-03T00:00:18.033Z,28.95
2017-11-03T00:02:44.293Z,29.87
2017-11-03T00:05:11.629Z,25.20
2017-11-03T00:07:37.869Z,35.23
2017-11-03T00:10:04.886Z,25.27
2017-11-03T00:12:31.145Z,27.37
2017-11-03T00:14:57.387Z,24.23
2017-11-03T00:17:23.607Z,24.70
2017-11-03T00:19:49.830Z,24.10
2017-11-03T00:22:16.374Z,24.63
2017-11-03T00:24:43.772Z,31.00
2017-11-03T00:27:10.018Z,26.53
2017-11-03T00:29:36.252Z,24.50
2017-11-03T00:32:03.262Z,27.20
2017-11-03T00:34:30.260Z,27.10
2017-11-03T00:36:57.602Z,24.93
2017-11-03T00:39:24.613Z,25.60
2017-11-03T00:41:50.885Z,29.33
2017-11-03T00:44:17.156Z,26.90
2017-11-03T00:46:43.401Z,33.13
2017-11-03T00:49:09.664Z,31.37
2017-11-03T00:51:36.640Z,40.10
2017-11-03T00:54:02.894Z,41.63
2017-11-03T00:56:29.154Z,32.90
2017-11-03T00:58:56.136Z,33.50
2017-11-03T01:01:22.384Z,38.93
2017-11-03T01:03:48.690Z,38.37
2017-11-03T01:06:14.953Z,41.93
2017-11-03T01:08:41.195Z,37.43
2017-11-03T01:11:08.187Z,34.73
2017-11-03T01:13:34.775Z,36.43
2017-11-03T01:16:01.019Z,37.23
2017-11-03T01:18:28.003Z,36.90
2017-11-03T01:20:54.238Z,42.20
2017-11-03T01:23:20.494Z,39.47
2017-11-03T01:25:46.761Z,39.78
2017-11-03T01:28:12.995Z,41.40
2017-11-03T01:30:39.259Z,33.23
2017-11-03T01:33:05.519Z,41.80
2017-11-03T01:35:32.517Z,34.30
2017-11-03T01:37:58.802Z,41.23
2017-11-03T01:40:25.795Z,41.93
2017-11-03T01:42:52.111Z,46.00
2017-11-03T01:45:18.422Z,47.53
2017-11-03T01:47:44.737Z,44.15
2017-11-03T01:50:10.982Z,38.10
2017-11-03T01:52:37.247Z,37.70
2017-11-03T01:55:03.497Z,38.87
2017-11-03T01:57:29.737Z,41.40
2017-11-03T01:59:56.788Z,52.28
2017-11-03T02:02:23.790Z,40.60
2017-11-03T02:04:50.092Z,42.60
2017-11-03T02:07:16.396Z,46.72
2017-11-03T02:09:42.660Z,41.92
2017-11-03T02:12:08.967Z,43.92
2017-11-03T02:14:35.212Z,40.53
2017-11-03T02:17:01.464Z,44.53
2017-11-03T02:19:27.780Z,40.72
2017-11-03T02:21:54.101Z,42.03
2017-11-03T02:24:20.393Z,42.33
2017-11-03T02:26:46.676Z,44.23
2017-11-03T02:29:12.977Z,43.20
2017-11-03T02:31:39.478Z,48.00
2017-11-03T02:34:06.890Z,62.88
2017-11-03T02:36:33.370Z,53.37
2017-11-03T02:38:59.651Z,48.17
2017-11-03T02:41:26.039Z,52.47
2017-11-03T02:43:52.301Z,49.47
2017-11-03T02:46:18.564Z,60.55
2017-11-03T02:48:45.566Z,55.42
2017-11-03T02:51:11.817Z,56.20
2017-11-03T02:53:38.968Z,44.88
2017-11-03T02:56:05.261Z,43.23
2017-11-03T02:58:31.608Z,48.38
2017-11-03T03:00:59.366Z,48.67
2017-11-03T03:03:25.820Z,51.63
2017-11-03T03:05:52.870Z,48.30
2017-11-03T03:08:19.853Z,48.87
2017-11-03T03:10:46.106Z,43.40
2017-11-03T03:13:12.388Z,48.90
2017-11-03T03:15:38.699Z,58.13
2017-11-03T03:18:05.812Z,52.80
2017-11-03T03:20:32.096Z,56.83
2017-11-03T03:22:58.395Z,59.40
2017-11-03T03:25:25.424Z,55.63
2017-11-03T03:27:51.765Z,51.83
2017-11-03T03:30:18.816Z,58.83
2017-11-03T03:32:45.099Z,50.88
2017-11-03T03:35:11.341Z,47.85
2017-11-03T03:37:37.626Z,54.42
2017-11-03T03:40:03.939Z,53.30
2017-11-03T03:42:31.013Z,56.08
2017-11-03T03:44:57.301Z,49.10
2017-11-03T03:47:24.304Z,53.75
2017-11-03T03:49:50.608Z,54.08
2017-11-03T03:52:16.878Z,49.60
2017-11-03T03:54:43.170Z,50.70
2017-11-03T03:57:09.444Z,46.10
2017-11-03T03:59:35.707Z,56.95
2017-11-03T04:02:01.963Z,45.33
2017-11-03T04:04:28.264Z,55.35
2017-11-03T04:06:54.520Z,53.78
2017-11-03T04:09:20.737Z,53.25
2017-11-03T04:11:47.062Z,49.57
2017-11-03T04:14:13.330Z,56.50
2017-11-03T04:16:39.568Z,55.30
2017-11-03T04:19:05.842Z,45.38
2017-11-03T04:21:32.116Z,48.17
2017-11-03T04:23:58.408Z,46.50
2017-11-03T04:26:24.677Z,51.20
2017-11-03T04:28:50.970Z,48.00
2017-11-03T04:31:17.241Z,46.60
2017-11-03T04:33:44.238Z,44.65
2017-11-03T04:36:10.499Z,48.90
2017-11-03T04:38:36.764Z,47.47
2017-11-03T04:41:03.056Z,52.65
2017-11-03T04:43:29.290Z,49.35
2017-11-03T04:45:55.601Z,52.55
2017-11-03T04:48:21.872Z,44.75
2017-11-03T04:50:48.114Z,48.15
2017-11-03T04:53:14.445Z,51.80
2017-11-03T04:55:40.834Z,50.35
2017-11-03T04:58:08.147Z,45.85
2017-11-03T05:00:34.390Z,47.03
2017-11-03T05:03:01.392Z,43.78
2017-11-03T05:05:27.644Z,47.42
2017-11-03T05:07:53.886Z,45.35
2017-11-03T05:10:20.466Z,47.05
2017-11-03T05:12:47.457Z,47.88
2017-11-03T05:15:13.704Z,54.10
2017-11-03T05:17:40.148Z,56.20
2017-11-03T05:20:06.393Z,55.63
2017-11-03T05:22:33.403Z,57.25
2017-11-03T05:24:59.672Z,50.35
2017-11-03T05:27:26.667Z,51.37
2017-11-03T05:29:53.656Z,49.08
2017-11-03T05:32:20.652Z,57.95
2017-11-03T05:34:47.232Z,49.03
2017-11-03T05:37:14.273Z,48.53
2017-11-03T05:39:41.280Z,43.87
2017-11-03T05:42:08.829Z,48.47
2017-11-03T05:44:35.990Z,48.55
2017-11-03T05:47:02.569Z,49.90
2017-11-03T05:49:30.806Z,48.00
2017-11-03T05:51:57.220Z,50.40
2017-11-03T05:54:23.883Z,51.00
2017-11-03T05:56:51.410Z,53.70
2017-11-03T05:59:17.852Z,52.92
2017-11-03T06:01:44.842Z,47.05
2017-11-03T06:04:11.153Z,54.88
2017-11-03T06:06:37.419Z,50.30
2017-11-03T06:09:04.940Z,45.60
2017-11-03T06:11:32.592Z,40.33
2017-11-03T06:14:00.234Z,48.17
2017-11-03T06:16:26.640Z,45.80
2017-11-03T06:18:52.881Z,45.27
2017-11-03T06:21:20.065Z,46.93
2017-11-03T06:23:46.581Z,47.20
2017-11-03T06:26:13.118Z,38.90
2017-11-03T06:28:39.362Z,40.50
2017-11-03T06:31:05.610Z,41.77
2017-11-03T06:33:31.937Z,46.87
2017-11-03T06:36:05.863Z,42.73
2017-11-03T06:38:32.035Z,37.40
2017-11-03T06:40:58.368Z,40.40
2017-11-03T06:43:24.657Z,43.23
2017-11-03T06:45:50.917Z,36.87
2017-11-03T06:48:17.200Z,41.53
2017-11-03T06:50:43.494Z,37.43
2017-11-03T06:53:10.499Z,38.00
2017-11-03T06:55:36.816Z,44.37
2017-11-03T06:58:03.076Z,34.33
2017-11-03T07:00:29.324Z,46.90
2017-11-03T07:02:55.717Z,39.87
2017-11-03T07:05:21.982Z,37.83
2017-11-03T07:07:49.025Z,42.80
2017-11-03T07:10:16.711Z,33.60
2017-11-03T07:12:43.157Z,36.30
2017-11-03T07:15:09.428Z,45.63
2017-11-03T07:17:37.130Z,47.60
2017-11-03T07:20:03.417Z,41.10
2017-11-03T07:22:29.666Z,46.57
2017-11-03T07:24:56.948Z,51.87
2017-11-03T07:27:23.224Z,55.30
2017-11-03T07:29:49.470Z,50.30
2017-11-03T07:32:17.553Z,60.40
2017-11-03T07:34:43.820Z,51.40
2017-11-03T07:37:10.091Z,57.93
2017-11-03T07:39:36.371Z,57.47
2017-11-03T07:42:02.673Z,53.93
2017-11-03T07:44:28.950Z,56.90
2017-11-03T07:46:56.042Z,47.17
2017-11-03T07:49:22.319Z,49.50
2017-11-03T07:51:48.606Z,57.50
2017-11-03T07:54:14.887Z,54.97
2017-11-03T07:56:41.172Z,59.53
2017-11-03T07:59:07.397Z,53.30
2017-11-03T08:01:33.658Z,56.83
2017-11-03T08:03:59.953Z,57.83
2017-11-03T08:06:26.185Z,55.97
2017-11-03T08:08:52.465Z,50.30
2017-11-03T08:11:18.735Z,51.70
2017-11-03T08:13:46.211Z,50.20
2017-11-03T08:16:12.649Z,55.97
2017-11-03T08:18:38.918Z,56.17
2017-11-03T08:21:06.580Z,54.13
2017-11-03T08:23:32.989Z,52.47
2017-11-03T08:25:59.993Z,51.20
2017-11-03T08:28:26.280Z,58.10
2017-11-03T08:30:53.288Z,54.47
2017-11-03T08:33:19.862Z,57.93
2017-11-03T08:35:46.857Z,50.00
2017-11-03T08:38:13.092Z,52.40
2017-11-03T08:40:39.378Z,56.87
2017-11-03T08:43:06.167Z,55.60
2017-11-03T08:45:32.742Z,57.47
2017-11-03T08:47:59.747Z,53.80
2017-11-03T08:50:26.687Z,54.67
2017-11-03T08:52:52.933Z,49.83
2017-11-03T08:55:19.213Z,51.67
2017-11-03T08:57:45.524Z,58.10
2017-11-03T09:00:11.812Z,56.17
2017-11-03T09:02:38.065Z,53.20
2017-11-03T09:05:05.101Z,55.10
2017-11-03T09:07:32.116Z,63.23
2017-11-03T09:09:58.384Z,53.03
2017-11-03T09:12:25.416Z,59.70
2017-11-03T09:14:52.439Z,53.33
2017-11-03T09:17:18.757Z,54.00
2017-11-03T09:19:45.017Z,52.60
2017-11-03T09:22:12.037Z,54.17
2017-11-03T09:24:38.363Z,62.30
2017-11-03T09:27:07.658Z,51.00
2017-11-03T09:29:34.230Z,51.03
2017-11-03T09:32:01.257Z,57.60
2017-11-03T09:34:27.551Z,43.40
2017-11-03T09:36:53.827Z,45.97
2017-11-03T09:39:20.867Z,43.93
2017-11-03T09:41:47.242Z,49.53
2017-11-03T09:44:13.517Z,50.30
2017-11-03T09:46:39.800Z,51.03
2017-11-03T09:49:06.391Z,54.03
2017-11-03T09:51:33.391Z,51.13
2017-11-03T09:53:59.679Z,43.67
2017-11-03T09:56:26.698Z,53.90
2017-11-03T09:58:52.989Z,42.67
2017-11-03T10:01:19.274Z,56.60
2017-11-03T10:03:45.670Z,46.93
2017-11-03T10:06:11.981Z,47.63
2017-11-03T10:08:38.238Z,50.13
2017-11-03T10:11:04.508Z,50.80
2017-11-03T10:13:30.809Z,51.37
2017-11-03T10:15:57.822Z,55.40
2017-11-03T10:18:24.128Z,52.77
2017-11-03T10:20:50.419Z,46.40
2017-11-03T10:23:16.736Z,44.03
2017-11-03T10:25:43.767Z,45.03
2017-11-03T10:28:10.033Z,45.60
2017-11-03T10:30:37.076Z,48.17
2017-11-03T10:33:03.324Z,37.87
2017-11-03T10:35:29.621Z,37.10
2017-11-03T10:37:58.163Z,40.47
2017-11-03T10:40:24.579Z,35.73
2017-11-03T10:42:52.668Z,34.03
2017-11-03T10:45:20.024Z,37.83
2017-11-03T10:47:47.733Z,43.90
2017-11-03T10:50:14.956Z,42.07
2017-11-03T10:52:42.838Z,36.37
2017-11-03T10:55:10.394Z,33.90
2017-11-03T10:57:37.722Z,42.23
2017-11-03T11:00:04.028Z,36.50
2017-11-03T11:02:30.343Z,34.80
2017-11-03T11:04:56.668Z,39.70
2017-11-03T11:07:22.926Z,37.67
2017-11-03T11:09:49.219Z,39.83
2017-11-03T11:12:15.511Z,35.67
2017-11-03T11:14:42.545Z,33.60
2017-11-03T11:17:11.673Z,32.43
2017-11-03T11:19:38.352Z,34.67
2017-11-03T11:22:06.072Z,33.73
2017-11-03T11:24:33.278Z,34.70
2017-11-03T11:27:00.657Z,29.90
2017-11-03T11:29:27.118Z,33.33
2017-11-03T11:31:53.576Z,35.80
2017-11-03T11:34:19.870Z,27.27
2017-11-03T11:36:47.351Z,33.57
2017-11-03T11:39:13.694Z,40.80
2017-11-03T11:41:40.099Z,33.27
2017-11-03T11:44:06.378Z,25.53
2017-11-03T11:46:33.442Z,25.40
2017-11-03T11:49:01.019Z,26.83
2017-11-03T11:51:28.232Z,33.93
2017-11-03T11:53:55.253Z,29.73
2017-11-03T11:56:21.520Z,29.63
2017-11-03T11:58:50.507Z,31.63
2017-11-03T12:01:16.972Z,36.23
2017-11-03T12:03:43.313Z,27.17
2017-11-03T12:06:09.612Z,26.90
2017-11-03T12:08:35.897Z,30.93
2017-11-03T12:11:02.229Z,27.57
2017-11-03T12:13:29.583Z,27.10
2017-11-03T12:15:56.086Z,32.53
2017-11-03T12:18:22.388Z,36.00
2017-11-03T12:20:48.713Z,27.00
2017-11-03T12:23:15.841Z,27.07
2017-11-03T12:25:42.853Z,25.57
2017-11-03T12:28:09.807Z,26.50
2017-11-03T12:30:36.111Z,28.50
2017-11-03T12:33:04.099Z,27.10
2017-11-03T12:35:30.593Z,25.30
2017-11-03T12:37:56.995Z,29.63
2017-11-03T12:40:23.478Z,25.77
2017-11-03T12:42:49.783Z,26.57
2017-11-03T12:45:16.061Z,23.10
2017-11-03T12:47:43.649Z,27.93
2017-11-03T12:50:11.399Z,26.87
2017-11-03T12:52:38.083Z,19.40
2017-11-03T12:55:04.379Z,23.80
2017-11-03T12:57:30.682Z,23.60
2017-11-03T12:59:57.692Z,23.77
2017-11-03T13:02:25.394Z,23.77
2017-11-03T13:04:52.936Z,24.20
2017-11-03T13:07:20.698Z,23.33
2017-11-03T13:09:47.276Z,24.13
2017-11-03T13:12:14.731Z,27.57
2017-11-03T13:14:42.358Z,28.90
2017-11-03T13:17:08.822Z,31.13
2017-11-03T13:19:35.119Z,28.10
2017-11-03T13:22:02.712Z,23.13
2017-11-03T13:24:30.766Z,24.87
2017-11-03T13:26:58.413Z,26.20
2017-11-03T13:29:25.040Z,18.57
2017-11-03T13:31:51.384Z,18.93
2017-11-03T13:34:17.669Z,19.70
2017-11-03T13:36:45.192Z,26.63
2017-11-03T13:39:12.430Z,22.37
2017-11-03T13:41:38.784Z,19.07
2017-11-03T13:44:06.840Z,20.73
2017-11-03T13:46:33.608Z,20.73
2017-11-03T13:49:01.409Z,20.10
2017-11-03T13:51:28.628Z,31.00
2017-11-03T13:53:54.911Z,21.43
2017-11-03T13:56:21.221Z,21.57
2017-11-03T13:58:49.369Z,25.90
2017-11-03T14:01:15.802Z,22.67
2017-11-03T14:03:42.172Z,18.40
2017-11-03T14:06:08.474Z,18.10
2017-11-03T14:08:35.999Z,24.30
2017-11-03T14:11:02.267Z,16.03
2017-11-03T14:13:29.281Z,23.07
2017-11-03T14:15:55.534Z,20.23
2017-11-03T14:18:22.514Z,22.27
2017-11-03T14:20:48.782Z,23.13
2017-11-03T14:23:15.037Z,25.03
2017-11-03T14:25:42.048Z,19.57
2017-11-03T14:28:08.305Z,22.03
2017-11-03T14:30:35.272Z,18.87
2017-11-03T14:33:01.561Z,19.00
2017-11-03T14:35:28.683Z,33.83
2017-11-03T14:37:55.129Z,16.30
2017-11-03T14:40:22.333Z,18.60
2017-11-03T14:42:48.867Z,15.63
2017-11-03T14:45:15.118Z,17.07
2017-11-03T14:47:42.008Z,23.00
2017-11-03T14:50:09.057Z,31.30
2017-11-03T14:52:36.060Z,19.23
2017-11-03T14:55:02.315Z,19.50
2017-11-03T14:57:29.482Z,17.03
2017-11-03T14:59:56.460Z,19.43
2017-11-03T15:02:22.761Z,22.70
2017-11-03T15:04:49.017Z,21.20
2017-11-03T15:07:15.257Z,20.87
2017-11-03T15:09:41.549Z,18.53
2017-11-03T15:12:07.839Z,18.30
2017-11-03T15:14:34.258Z,19.93
2017-11-03T15:17:00.528Z,19.17
2017-11-03T15:19:27.527Z,17.70
2017-11-03T15:21:53.805Z,24.17
2017-11-03T15:24:20.126Z,18.50
2017-11-03T15:26:47.242Z,19.27
2017-11-03T15:29:13.553Z,26.13
2017-11-03T15:31:39.846Z,20.23
2017-11-03T15:34:07.446Z,18.60
2017-11-03T15:36:33.781Z,22.67
2017-11-03T15:39:00.333Z,19.93
2017-11-03T15:41:26.703Z,21.07
2017-11-03T15:43:53.001Z,25.53
2017-11-03T15:46:19.307Z,20.73
2017-11-03T15:48:45.551Z,20.70
2017-11-03T15:51:11.857Z,19.63
2017-11-03T15:53:38.165Z,21.20
2017-11-03T15:56:04.441Z,24.13
2017-11-03T15:58:31.484Z,23.13
2017-11-03T16:00:58.477Z,21.47
2017-11-03T16:03:25.039Z,28.77
2017-11-03T16:05:52.109Z,22.33
2017-11-03T16:08:19.491Z,21.07
2017-11-03T16:10:45.762Z,20.33
2017-11-03T16:13:12.099Z,20.00
2017-11-03T16:15:38.515Z,20.60
2017-11-03T16:18:04.750Z,24.07
2017-11-03T16:20:31.053Z,20.77
2017-11-03T16:22:57.323Z,24.43
2017-11-03T16:25:24.325Z,23.03
2017-11-03T16:27:50.618Z,24.27
2017-11-03T16:30:16.905Z,23.80
2017-11-03T16:32:43.274Z,33.53
2017-11-03T16:35:10.303Z,23.33
2017-11-03T16:37:37.676Z,25.02
2017-11-03T16:40:04.020Z,23.00
2017-11-03T16:42:30.348Z,23.58
2017-11-03T16:44:56.672Z,17.62
2017-11-03T16:47:22.921Z,19.23
2017-11-03T16:49:49.249Z,24.42
2017-11-03T16:52:16.256Z,22.05
2017-11-03T16:54:43.317Z,26.70
2017-11-03T16:57:09.588Z,23.80
2017-11-03T16:59:35.881Z,23.52
2017-11-03T17:02:02.221Z,26.12
2017-11-03T17:04:28.514Z,29.27
2017-11-03T17:06:55.614Z,21.27
2017-11-03T17:09:21.896Z,25.70
2017-11-03T17:11:48.192Z,26.35
2017-11-03T17:14:14.509Z,27.15
2017-11-03T17:16:41.796Z,25.05
2017-11-03T17:19:09.166Z,24.55
2017-11-03T17:21:35.425Z,25.45
2017-11-03T17:24:02.509Z,34.03
2017-11-03T17:26:29.707Z,33.67
2017-11-03T17:28:56.165Z,31.92
2017-11-03T17:31:22.476Z,32.58
2017-11-03T17:33:50.085Z,25.33
2017-11-03T17:36:16.546Z,25.55
2017-11-03T17:38:44.199Z,29.08
2017-11-03T17:41:10.735Z,28.27
2017-11-03T17:43:38.162Z,22.90
2017-11-03T17:46:04.775Z,26.52
2017-11-03T17:48:31.191Z,26.65
2017-11-03T17:50:57.528Z,26.95
2017-11-03T17:53:24.863Z,31.65
2017-11-03T17:55:52.160Z,31.10
2017-11-03T17:58:19.575Z,31.05
2017-11-03T18:00:48.040Z,30.62
2017-11-03T18:03:15.232Z,34.13
2017-11-03T18:05:41.704Z,68.75
2017-11-03T18:08:08.980Z,39.65
2017-11-03T18:10:35.372Z,36.05
2017-11-03T18:13:03.471Z,30.02
2017-11-03T18:15:30.728Z,31.67
2017-11-03T18:17:57.181Z,26.83
2017-11-03T18:20:24.636Z,25.75
2017-11-03T18:22:51.117Z,29.52
2017-11-03T18:25:18.071Z,28.08
2017-11-03T18:27:44.621Z,30.20
2017-11-03T18:30:10.927Z,33.80
2017-11-03T18:32:37.226Z,35.05
2017-11-03T18:35:03.533Z,35.30
2017-11-03T18:37:29.842Z,36.38
2017-11-03T18:39:56.166Z,28.67
2017-11-03T18:42:22.510Z,36.70
2017-11-03T18:44:55.951Z,36.83
2017-11-03T18:47:22.979Z,38.10
2017-11-03T18:49:49.308Z,48.03
2017-11-03T18:52:15.659Z,59.60
2017-11-03T18:54:42.741Z,62.80
2017-11-03T18:57:09.128Z,62.40
2017-11-03T18:59:36.190Z,72.50
2017-11-03T19:02:02.526Z,65.15
2017-11-03T19:04:28.841Z,72.15
2017-11-03T19:06:55.921Z,66.75
2017-11-03T19:09:22.260Z,67.07
2017-11-03T19:11:48.695Z,58.72
2017-11-03T19:14:15.003Z,45.50
2017-11-03T19:16:41.348Z,45.08
2017-11-03T19:19:07.695Z,44.92
2017-11-03T19:21:34.045Z,37.13
2017-11-03T19:24:00.370Z,34.90
2017-11-03T19:26:26.694Z,39.80
2017-11-03T19:28:53.068Z,38.15
2017-11-03T19:31:19.442Z,37.53
2017-11-03T19:33:45.764Z,32.63
2017-11-03T19:36:12.775Z,37.95
2017-11-03T19:38:39.699Z,46.05
2017-11-03T19:41:06.049Z,40.20
2017-11-03T19:43:32.434Z,39.13
2017-11-03T19:45:58.825Z,49.60
2017-11-03T19:48:25.173Z,40.20
2017-11-03T19:50:51.543Z,38.45
2017-11-03T19:53:18.665Z,39.67
2017-11-03T19:55:46.151Z,38.88
2017-11-03T19:58:12.675Z,37.03
2017-11-03T20:00:39.728Z,36.70
2017-11-03T20:03:06.736Z,49.95
2017-11-03T20:05:33.109Z,46.60
2017-11-03T20:07:59.451Z,68.57
2017-11-03T20:10:25.768Z,59.15
2017-11-03T20:12:52.052Z,69.50
2017-11-03T20:15:18.396Z,89.28
2017-11-03T20:17:44.707Z,87.30
2017-11-03T20:20:11.009Z,71.72
2017-11-03T20:22:37.376Z,67.05
2017-11-03T20:25:03.709Z,51.33
2017-11-03T20:27:31.206Z,52.05
2017-11-03T20:29:57.690Z,46.75
2017-11-03T20:32:24.059Z,44.47
2017-11-03T20:34:50.403Z,45.95
2017-11-03T20:37:16.745Z,40.90
2017-11-03T20:39:43.125Z,43.80
2017-11-03T20:42:10.448Z,41.10
2017-11-03T20:44:37.605Z,48.70
2017-11-03T20:47:03.891Z,52.85
2017-11-03T20:49:30.902Z,52.92
2017-11-03T20:51:57.473Z,56.13
2017-11-03T20:54:23.759Z,51.50
2017-11-03T20:56:51.494Z,47.95
2017-11-03T20:59:17.835Z,43.22
2017-11-03T21:01:44.205Z,50.72
2017-11-03T21:04:11.304Z,37.03
2017-11-03T21:06:37.692Z,41.75
2017-11-03T21:09:04.734Z,35.65
2017-11-03T21:11:31.032Z,45.80
2017-11-03T21:13:57.472Z,42.50
2017-11-03T21:16:23.856Z,39.22
2017-11-03T21:18:50.219Z,46.03
2017-11-03T21:21:16.596Z,45.25
2017-11-03T21:23:43.851Z,48.05
2017-11-03T21:26:10.154Z,42.50
2017-11-03T21:28:37.212Z,44.03
2017-11-03T21:31:04.297Z,44.55
2017-11-03T21:33:31.051Z,48.00
2017-11-03T21:35:57.568Z,41.22
2017-11-03T21:38:23.875Z,47.03
2017-11-03T21:40:51.614Z,43.80
2017-11-03T21:43:18.023Z,54.17
2017-11-03T21:45:45.074Z,41.47
2017-11-03T21:48:12.167Z,36.63
2017-11-03T21:50:38.465Z,35.88
2017-11-03T21:53:04.767Z,39.20
2017-11-03T21:55:31.815Z,40.92
2017-11-03T21:57:58.611Z,42.33
2017-11-03T22:00:24.898Z,54.58
2017-11-03T22:02:51.999Z,54.22
2017-11-03T22:05:18.306Z,60.15
2017-11-03T22:07:44.612Z,52.83
2017-11-03T22:10:10.869Z,45.30
2017-11-03T22:12:37.195Z,41.47
2017-11-03T22:15:03.523Z,42.95
2017-11-03T22:17:29.792Z,36.40
2017-11-03T22:19:56.107Z,39.13
2017-11-03T22:22:22.351Z,38.30
2017-11-03T22:24:48.606Z,51.35
2017-11-03T22:27:14.895Z,40.20
2017-11-03T22:29:41.154Z,32.90
2017-11-03T22:32:07.388Z,35.50
2017-11-03T22:34:33.695Z,38.50
2017-11-03T22:37:00.714Z,35.55
2017-11-03T22:39:27.014Z,33.25
2017-11-03T22:41:53.333Z,30.05
2017-11-03T22:44:19.597Z,36.95
2017-11-03T22:46:45.852Z,37.05
2017-11-03T22:49:12.119Z,30.40
2017-11-03T22:51:38.398Z,29.40
2017-11-03T22:54:04.660Z,30.25
2017-11-03T22:56:30.890Z,30.80
2017-11-03T22:58:57.166Z,28.10
2017-11-03T23:01:23.444Z,36.13
2017-11-03T23:03:49.800Z,25.33
2017-11-03T23:06:16.036Z,28.48
2017-11-03T23:08:42.311Z,27.13
2017-11-03T23:11:09.298Z,38.40
2017-11-03T23:13:35.528Z,29.40
2017-11-03T23:16:01.791Z,29.30
2017-11-03T23:18:28.047Z,27.50
2017-11-03T23:20:55.165Z,28.23
2017-11-03T23:23:21.534Z,26.67
2017-11-03T23:25:47.790Z,24.27
2017-11-03T23:28:14.065Z,23.60
2017-11-03T23:30:41.092Z,26.73
2017-11-03T23:33:07.316Z,30.10
2017-11-03T23:35:33.612Z,35.50
2017-11-03T23:37:59.848Z,35.50
2017-11-03T23:40:26.406Z,30.40
2017-11-03T23:42:52.779Z,34.70
2017-11-03T23:45:19.020Z,31.48
2017-11-03T23:47:45.300Z,32.63
2017-11-03T23:50:11.453Z,32.10
2017-11-03T23:52:37.725Z,29.40
2017-11-03T23:55:04.725Z,31.75
2017-11-03T23:57:30.988Z,31.20
2017-11-03T23:59:57.231Z,39.05
